sensor_id;sensor_type;location;lat;lon;timestamp;P1;durP1;ratioP1;P2;durP2;ratioP2
70199;SDS011;57587;55.688;37.600;2022-09-12T00:02:02;15.60;;;8.10;;
70199;SDS011;57587;55.688;37.600;2022-09-12T00:04:32;16.25;;;8.30;;
70199;SDS011;57587;55.688;37.600;2022-09-12T00:06:59;13.30;;;8.25;;
70199;SDS011;57587;55.688;37.600;2022-09-12T00:09:26;15.48;;;8.00;;
70199;SDS011;57587;55.688;37.600;2022-09-12T00:11:53;15.97;;;7.87;;
70199;SDS011;57587;55.688;37.600;2022-09-12T00:14:20;14.10;;;8.07;;
70199;SDS011;57587;55.688;37.600;2022-09-12T00:16:47;13.35;;;8.25;;
70199;SDS011;57587;55.688;37.600;2022-09-12T00:19:14;18.33;;;8.20;;
70199;SDS011;57587;55.688;37.600;2022-09-12T00:21:41;15.27;;;8.48;;
70199;SDS011;57587;55.688;37.600;2022-09-12T00:24:09;13.10;;;8.10;;
70199;SDS011;57587;55.688;37.600;2022-09-12T00:26:37;12.18;;;7.60;;
70199;SDS011;57587;55.688;37.600;2022-09-12T00:29:04;16.33;;;8.02;;
70199;SDS011;57587;55.688;37.600;2022-09-12T00:31:31;16.00;;;8.80;;
70199;SDS011;57587;55.688;37.600;2022-09-12T00:34:06;13.50;;;8.27;;
70199;SDS011;57587;55.688;37.600;2022-09-12T00:36:33;12.10;;;7.93;;
70199;SDS011;57587;55.688;37.600;2022-09-12T00:39:00;16.40;;;8.15;;
70199;SDS011;57587;55.688;37.600;2022-09-12T00:41:29;13.50;;;8.07;;
70199;SDS011;57587;55.688;37.600;2022-09-12T00:54:58;28.02;;;16.13;;
70199;SDS011;57587;55.688;37.600;2022-09-12T00:57:26;25.33;;;13.50;;
70199;SDS011;57587;55.688;37.600;2022-09-12T01:00:16;21.00;;;11.00;;
70199;SDS011;57587;55.688;37.600;2022-09-12T01:02:49;16.27;;;10.37;;
70199;SDS011;57587;55.688;37.600;2022-09-12T01:05:21;19.73;;;10.20;;
70199;SDS011;57587;55.688;37.600;2022-09-12T01:07:49;16.00;;;9.02;;
70199;SDS011;57587;55.688;37.600;2022-09-12T01:10:17;15.52;;;9.25;;
70199;SDS011;57587;55.688;37.600;2022-09-12T01:12:45;19.77;;;11.20;;
70199;SDS011;57587;55.688;37.600;2022-09-12T01:15:13;16.87;;;10.00;;
70199;SDS011;57587;55.688;37.600;2022-09-12T01:18:03;14.45;;;9.00;;
70199;SDS011;57587;55.688;37.600;2022-09-12T01:23:36;15.52;;;9.27;;
70199;SDS011;57587;55.688;37.600;2022-09-12T01:31:32;17.35;;;8.85;;
70199;SDS011;57587;55.688;37.600;2022-09-12T01:34:18;18.08;;;10.10;;
70199;SDS011;57587;55.688;37.600;2022-09-12T01:39:47;15.40;;;8.48;;
70199;SDS011;57587;55.688;37.600;2022-09-12T01:42:43;16.80;;;8.73;;
70199;SDS011;57587;55.688;37.600;2022-09-12T01:50:34;11.52;;;7.63;;
70199;SDS011;57587;55.688;37.600;2022-09-12T01:53:14;13.57;;;7.97;;
70199;SDS011;57587;55.688;37.600;2022-09-12T01:55:49;15.93;;;8.07;;
70199;SDS011;57587;55.688;37.600;2022-09-12T01:58:24;13.68;;;7.43;;
70199;SDS011;57587;55.688;37.600;2022-09-12T02:01:00;12.88;;;7.53;;
70199;SDS011;57587;55.688;37.600;2022-09-12T02:03:33;17.20;;;7.75;;
70199;SDS011;57587;55.688;37.600;2022-09-12T02:06:08;11.77;;;7.82;;
70199;SDS011;57587;55.688;37.600;2022-09-12T02:08:45;14.57;;;7.90;;
70199;SDS011;57587;55.688;37.600;2022-09-12T02:11:16;10.52;;;6.82;;
70199;SDS011;57587;55.688;37.600;2022-09-12T02:14:01;13.30;;;8.35;;
70199;SDS011;57587;55.688;37.600;2022-09-12T02:16:36;17.50;;;8.27;;
70199;SDS011;57587;55.688;37.600;2022-09-12T02:19:09;13.50;;;8.10;;
70199;SDS011;57587;55.688;37.600;2022-09-12T02:21:44;13.07;;;8.10;;
70199;SDS011;57587;55.688;37.600;2022-09-12T02:24:15;17.27;;;9.35;;
70199;SDS011;57587;55.688;37.600;2022-09-12T02:26:45;17.52;;;9.35;;
70199;SDS011;57587;55.688;37.600;2022-09-12T02:29:15;21.20;;;8.68;;
70199;SDS011;57587;55.688;37.600;2022-09-12T02:31:46;14.13;;;8.65;;
70199;SDS011;57587;55.688;37.600;2022-09-12T02:36:54;12.85;;;8.40;;
70199;SDS011;57587;55.688;37.600;2022-09-12T02:39:35;19.73;;;9.48;;
70199;SDS011;57587;55.688;37.600;2022-09-12T02:42:03;15.07;;;9.25;;
70199;SDS011;57587;55.688;37.600;2022-09-12T02:44:31;17.67;;;9.23;;
70199;SDS011;57587;55.688;37.600;2022-09-12T02:49:36;19.23;;;9.20;;
70199;SDS011;57587;55.688;37.600;2022-09-12T02:52:03;17.95;;;9.77;;
70199;SDS011;57587;55.688;37.600;2022-09-12T02:54:30;21.30;;;10.15;;
70199;SDS011;57587;55.688;37.600;2022-09-12T02:57:17;16.17;;;9.73;;
70199;SDS011;57587;55.688;37.600;2022-09-12T02:59:49;16.80;;;9.80;;
70199;SDS011;57587;55.688;37.600;2022-09-12T03:11:13;15.30;;;9.70;;
70199;SDS011;57587;55.688;37.600;2022-09-12T03:14:16;16.63;;;10.50;;
70199;SDS011;57587;55.688;37.600;2022-09-12T03:20:04;20.80;;;10.95;;
70199;SDS011;57587;55.688;37.600;2022-09-12T03:23:11;18.70;;;10.00;;
70199;SDS011;57587;55.688;37.600;2022-09-12T03:25:36;19.95;;;10.57;;
70199;SDS011;57587;55.688;37.600;2022-09-12T03:28:13;21.13;;;11.30;;
70199;SDS011;57587;55.688;37.600;2022-09-12T03:30:43;18.65;;;10.57;;
70199;SDS011;57587;55.688;37.600;2022-09-12T03:33:15;29.02;;;11.73;;
70199;SDS011;57587;55.688;37.600;2022-09-12T03:35:44;22.75;;;11.60;;
70199;SDS011;57587;55.688;37.600;2022-09-12T03:38:13;19.70;;;11.90;;
70199;SDS011;57587;55.688;37.600;2022-09-12T03:40:40;22.90;;;11.33;;
70199;SDS011;57587;55.688;37.600;2022-09-12T03:43:08;25.80;;;13.13;;
70199;SDS011;57587;55.688;37.600;2022-09-12T03:45:36;23.92;;;12.00;;
70199;SDS011;57587;55.688;37.600;2022-09-12T03:48:03;16.73;;;10.70;;
70199;SDS011;57587;55.688;37.600;2022-09-12T03:50:35;22.38;;;11.15;;
70199;SDS011;57587;55.688;37.600;2022-09-12T03:53:02;18.73;;;10.57;;
70199;SDS011;57587;55.688;37.600;2022-09-12T03:55:29;20.00;;;10.30;;
70199;SDS011;57587;55.688;37.600;2022-09-12T03:57:56;18.35;;;10.63;;
70199;SDS011;57587;55.688;37.600;2022-09-12T04:00:24;18.52;;;10.32;;
70199;SDS011;57587;55.688;37.600;2022-09-12T04:02:55;18.83;;;10.60;;
70199;SDS011;57587;55.688;37.600;2022-09-12T04:05:23;19.17;;;11.00;;
70199;SDS011;57587;55.688;37.600;2022-09-12T04:07:51;20.60;;;11.35;;
70199;SDS011;57587;55.688;37.600;2022-09-12T04:10:18;17.58;;;11.18;;
70199;SDS011;57587;55.688;37.600;2022-09-12T04:12:45;21.50;;;10.52;;
70199;SDS011;57587;55.688;37.600;2022-09-12T04:15:15;17.48;;;10.68;;
70199;SDS011;57587;55.688;37.600;2022-09-12T04:17:44;18.93;;;11.37;;
70199;SDS011;57587;55.688;37.600;2022-09-12T04:20:11;18.25;;;10.48;;
70199;SDS011;57587;55.688;37.600;2022-09-12T04:22:38;17.63;;;10.73;;
70199;SDS011;57587;55.688;37.600;2022-09-12T04:25:05;18.83;;;11.15;;
70199;SDS011;57587;55.688;37.600;2022-09-12T04:27:33;18.88;;;11.52;;
70199;SDS011;57587;55.688;37.600;2022-09-12T04:30:01;18.97;;;11.37;;
70199;SDS011;57587;55.688;37.600;2022-09-12T04:32:30;15.95;;;10.40;;
70199;SDS011;57587;55.688;37.600;2022-09-12T04:34:57;17.45;;;11.63;;
70199;SDS011;57587;55.688;37.600;2022-09-12T04:37:24;19.33;;;10.75;;
70199;SDS011;57587;55.688;37.600;2022-09-12T04:39:51;16.42;;;10.20;;
70199;SDS011;57587;55.688;37.600;2022-09-12T04:42:23;18.47;;;10.73;;
70199;SDS011;57587;55.688;37.600;2022-09-12T04:44:50;17.95;;;10.23;;
70199;SDS011;57587;55.688;37.600;2022-09-12T04:47:17;18.35;;;10.82;;
70199;SDS011;57587;55.688;37.600;2022-09-12T04:49:44;22.85;;;11.38;;
70199;SDS011;57587;55.688;37.600;2022-09-12T04:52:11;22.10;;;12.35;;
70199;SDS011;57587;55.688;37.600;2022-09-12T04:54:38;19.30;;;11.20;;
70199;SDS011;57587;55.688;37.600;2022-09-12T04:57:05;23.63;;;12.27;;
70199;SDS011;57587;55.688;37.600;2022-09-12T04:59:32;20.85;;;10.80;;
70199;SDS011;57587;55.688;37.600;2022-09-12T05:01:59;20.73;;;12.07;;
70199;SDS011;57587;55.688;37.600;2022-09-12T05:04:27;20.52;;;11.55;;
70199;SDS011;57587;55.688;37.600;2022-09-12T05:06:54;19.03;;;11.03;;
70199;SDS011;57587;55.688;37.600;2022-09-12T05:09:21;18.88;;;11.32;;
70199;SDS011;57587;55.688;37.600;2022-09-12T05:11:48;24.13;;;12.25;;
70199;SDS011;57587;55.688;37.600;2022-09-12T05:14:31;18.58;;;11.35;;
70199;SDS011;57587;55.688;37.600;2022-09-12T05:16:59;18.25;;;11.80;;
70199;SDS011;57587;55.688;37.600;2022-09-12T05:19:28;20.63;;;11.13;;
70199;SDS011;57587;55.688;37.600;2022-09-12T05:21:56;19.83;;;12.13;;
70199;SDS011;57587;55.688;37.600;2022-09-12T05:24:24;23.08;;;10.93;;
70199;SDS011;57587;55.688;37.600;2022-09-12T05:26:51;19.58;;;11.02;;
70199;SDS011;57587;55.688;37.600;2022-09-12T05:29:18;19.02;;;11.38;;
70199;SDS011;57587;55.688;37.600;2022-09-12T05:31:45;16.97;;;10.43;;
70199;SDS011;57587;55.688;37.600;2022-09-12T05:38:46;16.02;;;9.73;;
70199;SDS011;57587;55.688;37.600;2022-09-12T05:41:14;16.17;;;10.60;;
70199;SDS011;57587;55.688;37.600;2022-09-12T05:43:54;21.88;;;10.70;;
70199;SDS011;57587;55.688;37.600;2022-09-12T05:46:25;18.50;;;10.30;;
70199;SDS011;57587;55.688;37.600;2022-09-12T05:48:54;16.33;;;10.13;;
70199;SDS011;57587;55.688;37.600;2022-09-12T05:51:23;20.17;;;10.20;;
70199;SDS011;57587;55.688;37.600;2022-09-12T05:53:54;16.30;;;9.75;;
70199;SDS011;57587;55.688;37.600;2022-09-12T05:56:24;16.05;;;10.20;;
70199;SDS011;57587;55.688;37.600;2022-09-12T05:58:53;21.03;;;9.80;;
70199;SDS011;57587;55.688;37.600;2022-09-12T06:01:24;15.48;;;9.57;;
70199;SDS011;57587;55.688;37.600;2022-09-12T06:03:53;18.50;;;9.43;;
70199;SDS011;57587;55.688;37.600;2022-09-12T06:06:23;19.23;;;9.77;;
70199;SDS011;57587;55.688;37.600;2022-09-12T06:08:51;18.20;;;10.23;;
70199;SDS011;57587;55.688;37.600;2022-09-12T06:11:20;22.23;;;9.40;;
70199;SDS011;57587;55.688;37.600;2022-09-12T06:13:51;16.83;;;8.65;;
70199;SDS011;57587;55.688;37.600;2022-09-12T06:16:20;19.65;;;9.40;;
70199;SDS011;57587;55.688;37.600;2022-09-12T06:18:50;21.17;;;8.98;;
70199;SDS011;57587;55.688;37.600;2022-09-12T06:21:19;16.90;;;8.82;;
70199;SDS011;57587;55.688;37.600;2022-09-12T06:23:47;14.40;;;8.63;;
70199;SDS011;57587;55.688;37.600;2022-09-12T06:26:15;17.98;;;9.05;;
70199;SDS011;57587;55.688;37.600;2022-09-12T06:28:44;30.65;;;10.13;;
70199;SDS011;57587;55.688;37.600;2022-09-12T06:31:15;19.05;;;8.77;;
70199;SDS011;57587;55.688;37.600;2022-09-12T06:33:45;18.90;;;9.45;;
70199;SDS011;57587;55.688;37.600;2022-09-12T06:38:46;19.15;;;8.63;;
70199;SDS011;57587;55.688;37.600;2022-09-12T06:41:20;19.63;;;9.15;;
70199;SDS011;57587;55.688;37.600;2022-09-12T06:43:47;16.15;;;9.15;;
70199;SDS011;57587;55.688;37.600;2022-09-12T06:46:14;26.67;;;9.15;;
70199;SDS011;57587;55.688;37.600;2022-09-12T06:48:41;13.53;;;8.90;;
70199;SDS011;57587;55.688;37.600;2022-09-12T06:51:09;15.88;;;8.25;;
70199;SDS011;57587;55.688;37.600;2022-09-12T06:53:39;17.10;;;8.73;;
70199;SDS011;57587;55.688;37.600;2022-09-12T06:58:38;15.32;;;8.68;;
70199;SDS011;57587;55.688;37.600;2022-09-12T07:01:13;15.40;;;8.38;;
70199;SDS011;57587;55.688;37.600;2022-09-12T07:03:42;13.98;;;8.52;;
70199;SDS011;57587;55.688;37.600;2022-09-12T07:06:14;17.23;;;8.85;;
70199;SDS011;57587;55.688;37.600;2022-09-12T07:08:44;17.92;;;9.05;;
70199;SDS011;57587;55.688;37.600;2022-09-12T07:13:38;15.60;;;8.00;;
70199;SDS011;57587;55.688;37.600;2022-09-12T07:16:07;21.88;;;10.00;;
70199;SDS011;57587;55.688;37.600;2022-09-12T07:18:36;15.85;;;10.02;;
70199;SDS011;57587;55.688;37.600;2022-09-12T07:21:13;20.30;;;8.65;;
70199;SDS011;57587;55.688;37.600;2022-09-12T07:23:41;15.32;;;7.72;;
70199;SDS011;57587;55.688;37.600;2022-09-12T07:26:12;11.15;;;7.28;;
70199;SDS011;57587;55.688;37.600;2022-09-12T07:28:40;14.13;;;7.28;;
70199;SDS011;57587;55.688;37.600;2022-09-12T07:31:12;15.23;;;7.32;;
70199;SDS011;57587;55.688;37.600;2022-09-12T07:33:41;12.63;;;6.70;;
70199;SDS011;57587;55.688;37.600;2022-09-12T07:36:10;11.70;;;6.53;;
70199;SDS011;57587;55.688;37.600;2022-09-12T07:38:42;11.23;;;6.83;;
70199;SDS011;57587;55.688;37.600;2022-09-12T07:43:36;11.70;;;7.10;;
70199;SDS011;57587;55.688;37.600;2022-09-12T07:46:03;14.73;;;7.97;;
70199;SDS011;57587;55.688;37.600;2022-09-12T07:48:31;19.40;;;8.43;;
70199;SDS011;57587;55.688;37.600;2022-09-12T07:50:58;18.50;;;6.90;;
70199;SDS011;57587;55.688;37.600;2022-09-12T07:53:30;20.00;;;8.50;;
70199;SDS011;57587;55.688;37.600;2022-09-12T07:55:58;15.45;;;7.93;;
70199;SDS011;57587;55.688;37.600;2022-09-12T07:58:26;12.10;;;7.47;;
70199;SDS011;57587;55.688;37.600;2022-09-12T08:00:52;14.18;;;7.25;;
70199;SDS011;57587;55.688;37.600;2022-09-12T08:03:19;16.23;;;6.80;;
70199;SDS011;57587;55.688;37.600;2022-09-12T08:05:46;17.33;;;7.30;;
70199;SDS011;57587;55.688;37.600;2022-09-12T08:08:13;18.50;;;6.88;;
70199;SDS011;57587;55.688;37.600;2022-09-12T08:10:40;19.50;;;7.38;;
70199;SDS011;57587;55.688;37.600;2022-09-12T08:13:07;14.93;;;7.35;;
70199;SDS011;57587;55.688;37.600;2022-09-12T08:15:36;15.25;;;7.10;;
70199;SDS011;57587;55.688;37.600;2022-09-12T08:18:03;20.08;;;7.40;;
70199;SDS011;57587;55.688;37.600;2022-09-12T08:20:30;13.25;;;7.43;;
70199;SDS011;57587;55.688;37.600;2022-09-12T08:22:58;21.00;;;9.02;;
70199;SDS011;57587;55.688;37.600;2022-09-12T08:25:25;23.83;;;8.95;;
70199;SDS011;57587;55.688;37.600;2022-09-12T08:27:52;14.73;;;8.43;;
70199;SDS011;57587;55.688;37.600;2022-09-12T08:30:19;19.88;;;8.07;;
70199;SDS011;57587;55.688;37.600;2022-09-12T08:32:46;19.17;;;8.20;;
70199;SDS011;57587;55.688;37.600;2022-09-12T08:35:13;17.92;;;8.40;;
70199;SDS011;57587;55.688;37.600;2022-09-12T08:37:40;16.02;;;8.55;;
70199;SDS011;57587;55.688;37.600;2022-09-12T08:40:10;16.60;;;8.60;;
70199;SDS011;57587;55.688;37.600;2022-09-12T08:45:58;15.98;;;8.45;;
70199;SDS011;57587;55.688;37.600;2022-09-12T08:48:33;25.20;;;8.93;;
70199;SDS011;57587;55.688;37.600;2022-09-12T08:51:01;15.70;;;8.43;;
70199;SDS011;57587;55.688;37.600;2022-09-12T08:53:32;20.35;;;8.85;;
70199;SDS011;57587;55.688;37.600;2022-09-12T08:56:04;22.60;;;10.00;;
70199;SDS011;57587;55.688;37.600;2022-09-12T08:58:40;15.52;;;8.93;;
70199;SDS011;57587;55.688;37.600;2022-09-12T09:12:48;17.90;;;9.88;;
70199;SDS011;57587;55.688;37.600;2022-09-12T09:20:44;19.88;;;9.52;;
70199;SDS011;57587;55.688;37.600;2022-09-12T09:23:21;16.80;;;10.13;;
70199;SDS011;57587;55.688;37.600;2022-09-12T09:26:00;18.92;;;9.75;;
70199;SDS011;57587;55.688;37.600;2022-09-12T09:28:38;21.30;;;10.30;;
70199;SDS011;57587;55.688;37.600;2022-09-12T09:31:11;20.20;;;9.27;;
70199;SDS011;57587;55.688;37.600;2022-09-12T09:33:41;17.15;;;9.73;;
70199;SDS011;57587;55.688;37.600;2022-09-12T09:39:04;19.45;;;9.77;;
70199;SDS011;57587;55.688;37.600;2022-09-12T09:41:51;22.20;;;10.50;;
70199;SDS011;57587;55.688;37.600;2022-09-12T09:44:22;22.00;;;10.45;;
70199;SDS011;57587;55.688;37.600;2022-09-12T09:46:51;25.25;;;11.75;;
70199;SDS011;57587;55.688;37.600;2022-09-12T09:49:21;21.38;;;12.13;;
70199;SDS011;57587;55.688;37.600;2022-09-12T09:51:48;25.52;;;12.07;;
70199;SDS011;57587;55.688;37.600;2022-09-12T09:54:20;21.83;;;11.88;;
70199;SDS011;57587;55.688;37.600;2022-09-12T09:56:48;24.55;;;12.63;;
70199;SDS011;57587;55.688;37.600;2022-09-12T09:59:17;22.45;;;13.02;;
70199;SDS011;57587;55.688;37.600;2022-09-12T10:01:50;27.52;;;13.13;;
70199;SDS011;57587;55.688;37.600;2022-09-12T10:08:07;21.27;;;13.52;;
70199;SDS011;57587;55.688;37.600;2022-09-12T10:10:34;25.20;;;12.75;;
70199;SDS011;57587;55.688;37.600;2022-09-12T10:13:08;25.50;;;13.70;;
70199;SDS011;57587;55.688;37.600;2022-09-12T10:15:55;27.30;;;13.48;;
70199;SDS011;57587;55.688;37.600;2022-09-12T10:18:32;27.25;;;14.50;;
70199;SDS011;57587;55.688;37.600;2022-09-12T10:21:21;29.25;;;14.00;;
70199;SDS011;57587;55.688;37.600;2022-09-12T10:27:13;31.08;;;15.07;;
70199;SDS011;57587;55.688;37.600;2022-09-12T10:29:49;26.13;;;14.38;;
70199;SDS011;57587;55.688;37.600;2022-09-12T10:32:22;31.42;;;14.70;;
70199;SDS011;57587;55.688;37.600;2022-09-12T10:35:00;30.58;;;14.77;;
70199;SDS011;57587;55.688;37.600;2022-09-12T10:40:01;26.77;;;15.95;;
70199;SDS011;57587;55.688;37.600;2022-09-12T10:45:23;28.73;;;15.18;;
70199;SDS011;57587;55.688;37.600;2022-09-12T10:47:55;26.85;;;14.95;;
70199;SDS011;57587;55.688;37.600;2022-09-12T10:50:42;31.85;;;15.93;;
70199;SDS011;57587;55.688;37.600;2022-09-12T10:53:22;29.85;;;15.52;;
70199;SDS011;57587;55.688;37.600;2022-09-12T10:58:38;31.67;;;15.57;;
70199;SDS011;57587;55.688;37.600;2022-09-12T11:06:57;29.55;;;15.98;;
70199;SDS011;57587;55.688;37.600;2022-09-12T11:21:36;29.15;;;14.90;;
70199;SDS011;57587;55.688;37.600;2022-09-12T11:30:54;32.80;;;14.93;;
70199;SDS011;57587;55.688;37.600;2022-09-12T11:33:46;32.13;;;16.75;;
70199;SDS011;57587;55.688;37.600;2022-09-12T11:39:17;30.20;;;15.25;;
70199;SDS011;57587;55.688;37.600;2022-09-12T11:41:50;28.15;;;15.95;;
70199;SDS011;57587;55.688;37.600;2022-09-12T11:44:25;33.08;;;16.17;;
70199;SDS011;57587;55.688;37.600;2022-09-12T11:46:55;31.20;;;15.75;;
70199;SDS011;57587;55.688;37.600;2022-09-12T11:49:25;32.38;;;16.42;;
70199;SDS011;57587;55.688;37.600;2022-09-12T11:54:51;31.33;;;15.43;;
70199;SDS011;57587;55.688;37.600;2022-09-12T11:57:28;31.25;;;15.93;;
70199;SDS011;57587;55.688;37.600;2022-09-12T12:00:04;27.10;;;14.98;;
70199;SDS011;57587;55.688;37.600;2022-09-12T12:02:42;32.85;;;15.50;;
70199;SDS011;57587;55.688;37.600;2022-09-12T12:08:18;35.75;;;15.95;;
70199;SDS011;57587;55.688;37.600;2022-09-12T12:10:58;30.17;;;15.02;;
70199;SDS011;57587;55.688;37.600;2022-09-12T12:13:29;33.47;;;15.73;;
70199;SDS011;57587;55.688;37.600;2022-09-12T12:16:23;31.38;;;14.60;;
70199;SDS011;57587;55.688;37.600;2022-09-12T12:18:55;30.63;;;14.50;;
70199;SDS011;57587;55.688;37.600;2022-09-12T12:29:08;28.08;;;14.52;;
70199;SDS011;57587;55.688;37.600;2022-09-12T12:36:58;40.30;;;14.40;;
70199;SDS011;57587;55.688;37.600;2022-09-12T12:47:40;27.05;;;13.88;;
70199;SDS011;57587;55.688;37.600;2022-09-12T12:52:50;25.75;;;13.18;;
70199;SDS011;57587;55.688;37.600;2022-09-12T12:55:32;27.38;;;13.13;;
70199;SDS011;57587;55.688;37.600;2022-09-12T12:58:05;25.77;;;13.13;;
70199;SDS011;57587;55.688;37.600;2022-09-12T13:03:53;31.65;;;13.65;;
70199;SDS011;57587;55.688;37.600;2022-09-12T13:06:34;23.55;;;12.07;;
70199;SDS011;57587;55.688;37.600;2022-09-12T13:09:08;25.25;;;11.80;;
70199;SDS011;57587;55.688;37.600;2022-09-12T13:11:52;23.45;;;11.90;;
70199;SDS011;57587;55.688;37.600;2022-09-12T13:14:32;25.52;;;11.30;;
70199;SDS011;57587;55.688;37.600;2022-09-12T13:20:18;29.33;;;11.38;;
70199;SDS011;57587;55.688;37.600;2022-09-12T13:22:54;20.25;;;9.77;;
70199;SDS011;57587;55.688;37.600;2022-09-12T13:25:27;22.55;;;10.68;;
70199;SDS011;57587;55.688;37.600;2022-09-12T13:30:39;18.65;;;9.50;;
70199;SDS011;57587;55.688;37.600;2022-09-12T13:33:18;23.05;;;11.02;;
70199;SDS011;57587;55.688;37.600;2022-09-12T13:41:29;19.92;;;9.55;;
70199;SDS011;57587;55.688;37.600;2022-09-12T13:43:58;18.08;;;9.00;;
70199;SDS011;57587;55.688;37.600;2022-09-12T13:46:29;13.77;;;8.52;;
70199;SDS011;57587;55.688;37.600;2022-09-12T13:49:00;15.93;;;8.68;;
70199;SDS011;57587;55.688;37.600;2022-09-12T13:51:37;16.60;;;8.55;;
70199;SDS011;57587;55.688;37.600;2022-09-12T13:54:04;18.63;;;9.70;;
70199;SDS011;57587;55.688;37.600;2022-09-12T13:56:32;19.00;;;9.45;;
70199;SDS011;57587;55.688;37.600;2022-09-12T13:59:00;16.48;;;9.13;;
70199;SDS011;57587;55.688;37.600;2022-09-12T14:01:37;19.45;;;8.73;;
70199;SDS011;57587;55.688;37.600;2022-09-12T14:04:25;16.15;;;8.18;;
70199;SDS011;57587;55.688;37.600;2022-09-12T14:07:16;18.42;;;7.90;;
70199;SDS011;57587;55.688;37.600;2022-09-12T14:09:56;14.80;;;7.65;;
70199;SDS011;57587;55.688;37.600;2022-09-12T14:14:58;12.50;;;7.50;;
70199;SDS011;57587;55.688;37.600;2022-09-12T14:20:13;12.20;;;6.50;;
70199;SDS011;57587;55.688;37.600;2022-09-12T14:22:44;14.10;;;6.93;;
70199;SDS011;57587;55.688;37.600;2022-09-12T14:25:17;13.82;;;6.57;;
70199;SDS011;57587;55.688;37.600;2022-09-12T14:27:50;17.50;;;6.78;;
70199;SDS011;57587;55.688;37.600;2022-09-12T14:30:26;15.40;;;7.05;;
70199;SDS011;57587;55.688;37.600;2022-09-12T14:40:51;21.52;;;7.30;;
70199;SDS011;57587;55.688;37.600;2022-09-12T14:46:04;13.32;;;6.60;;
70199;SDS011;57587;55.688;37.600;2022-09-12T14:51:57;10.43;;;5.80;;
70199;SDS011;57587;55.688;37.600;2022-09-12T14:56:59;15.43;;;5.90;;
70199;SDS011;57587;55.688;37.600;2022-09-12T15:04:50;12.23;;;5.63;;
70199;SDS011;57587;55.688;37.600;2022-09-12T15:15:35;14.50;;;6.07;;
70199;SDS011;57587;55.688;37.600;2022-09-12T15:18:04;18.25;;;6.25;;
70199;SDS011;57587;55.688;37.600;2022-09-12T15:20:32;15.80;;;5.20;;
70199;SDS011;57587;55.688;37.600;2022-09-12T15:23:02;11.88;;;5.07;;
70199;SDS011;57587;55.688;37.600;2022-09-12T15:25:30;10.45;;;5.55;;
70199;SDS011;57587;55.688;37.600;2022-09-12T15:27:57;14.40;;;6.05;;
70199;SDS011;57587;55.688;37.600;2022-09-12T15:30:25;16.02;;;5.82;;
70199;SDS011;57587;55.688;37.600;2022-09-12T15:32:53;10.57;;;6.15;;
70199;SDS011;57587;55.688;37.600;2022-09-12T15:35:22;24.00;;;6.78;;
70199;SDS011;57587;55.688;37.600;2022-09-12T15:37:50;18.55;;;6.28;;
70199;SDS011;57587;55.688;37.600;2022-09-12T15:40:17;32.78;;;7.75;;
70199;SDS011;57587;55.688;37.600;2022-09-12T15:42:44;19.13;;;6.03;;
70199;SDS011;57587;55.688;37.600;2022-09-12T15:45:18;21.92;;;6.30;;
70199;SDS011;57587;55.688;37.600;2022-09-12T15:47:48;18.98;;;7.20;;
70199;SDS011;57587;55.688;37.600;2022-09-12T15:50:15;20.60;;;7.00;;
70199;SDS011;57587;55.688;37.600;2022-09-12T15:52:44;23.48;;;6.47;;
70199;SDS011;57587;55.688;37.600;2022-09-12T15:55:16;23.20;;;7.28;;
70199;SDS011;57587;55.688;37.600;2022-09-12T15:57:47;13.30;;;5.35;;
70199;SDS011;57587;55.688;37.600;2022-09-12T16:00:15;12.77;;;5.47;;
70199;SDS011;57587;55.688;37.600;2022-09-12T16:02:44;16.58;;;5.85;;
70199;SDS011;57587;55.688;37.600;2022-09-12T16:05:14;14.07;;;5.53;;
70199;SDS011;57587;55.688;37.600;2022-09-12T16:07:43;17.25;;;6.28;;
70199;SDS011;57587;55.688;37.600;2022-09-12T16:10:14;14.05;;;5.43;;
70199;SDS011;57587;55.688;37.600;2022-09-12T16:12:43;13.18;;;5.57;;
70199;SDS011;57587;55.688;37.600;2022-09-12T16:15:12;11.13;;;5.15;;
70199;SDS011;57587;55.688;37.600;2022-09-12T16:17:41;13.75;;;5.13;;
70199;SDS011;57587;55.688;37.600;2022-09-12T16:20:11;11.57;;;4.75;;
70199;SDS011;57587;55.688;37.600;2022-09-12T16:22:38;11.40;;;5.68;;
70199;SDS011;57587;55.688;37.600;2022-09-12T16:28:03;14.50;;;5.68;;
70199;SDS011;57587;55.688;37.600;2022-09-12T16:30:32;13.73;;;6.00;;
70199;SDS011;57587;55.688;37.600;2022-09-12T16:32:59;17.20;;;5.60;;
70199;SDS011;57587;55.688;37.600;2022-09-12T16:35:26;14.07;;;5.50;;
70199;SDS011;57587;55.688;37.600;2022-09-12T16:37:54;16.77;;;5.50;;
70199;SDS011;57587;55.688;37.600;2022-09-12T16:40:21;10.60;;;4.75;;
70199;SDS011;57587;55.688;37.600;2022-09-12T16:42:49;12.02;;;5.13;;
70199;SDS011;57587;55.688;37.600;2022-09-12T16:45:16;8.38;;;4.78;;
70199;SDS011;57587;55.688;37.600;2022-09-12T16:47:43;11.43;;;4.72;;
70199;SDS011;57587;55.688;37.600;2022-09-12T16:50:10;10.32;;;4.90;;
70199;SDS011;57587;55.688;37.600;2022-09-12T16:52:36;8.68;;;4.82;;
70199;SDS011;57587;55.688;37.600;2022-09-12T16:55:04;11.02;;;5.70;;
70199;SDS011;57587;55.688;37.600;2022-09-12T16:57:31;9.73;;;5.18;;
70199;SDS011;57587;55.688;37.600;2022-09-12T16:59:58;10.47;;;4.70;;
70199;SDS011;57587;55.688;37.600;2022-09-12T17:02:25;8.68;;;5.00;;
70199;SDS011;57587;55.688;37.600;2022-09-12T17:04:52;8.35;;;4.70;;
70199;SDS011;57587;55.688;37.600;2022-09-12T17:07:19;9.18;;;4.75;;
70199;SDS011;57587;55.688;37.600;2022-09-12T17:09:46;10.13;;;5.10;;
70199;SDS011;57587;55.688;37.600;2022-09-12T17:12:14;10.33;;;4.60;;
70199;SDS011;57587;55.688;37.600;2022-09-12T17:14:43;6.35;;;3.97;;
70199;SDS011;57587;55.688;37.600;2022-09-12T17:17:11;8.70;;;4.60;;
70199;SDS011;57587;55.688;37.600;2022-09-12T17:19:38;7.97;;;4.35;;
70199;SDS011;57587;55.688;37.600;2022-09-12T17:22:05;9.32;;;4.75;;
70199;SDS011;57587;55.688;37.600;2022-09-12T17:24:32;7.40;;;4.53;;
70199;SDS011;57587;55.688;37.600;2022-09-12T17:27:00;6.88;;;4.13;;
70199;SDS011;57587;55.688;37.600;2022-09-12T17:29:27;8.68;;;5.22;;
70199;SDS011;57587;55.688;37.600;2022-09-12T17:31:54;8.63;;;4.85;;
70199;SDS011;57587;55.688;37.600;2022-09-12T17:34:21;8.80;;;5.18;;
70199;SDS011;57587;55.688;37.600;2022-09-12T17:36:49;16.53;;;4.70;;
70199;SDS011;57587;55.688;37.600;2022-09-12T17:39:16;6.95;;;4.47;;
70199;SDS011;57587;55.688;37.600;2022-09-12T17:41:43;8.52;;;4.90;;
70199;SDS011;57587;55.688;37.600;2022-09-12T17:44:13;7.75;;;5.00;;
70199;SDS011;57587;55.688;37.600;2022-09-12T17:46:43;7.43;;;4.47;;
70199;SDS011;57587;55.688;37.600;2022-09-12T17:49:11;10.23;;;4.43;;
70199;SDS011;57587;55.688;37.600;2022-09-12T17:51:42;8.07;;;4.20;;
70199;SDS011;57587;55.688;37.600;2022-09-12T17:54:11;8.35;;;4.85;;
70199;SDS011;57587;55.688;37.600;2022-09-12T17:56:42;8.02;;;5.00;;
70199;SDS011;57587;55.688;37.600;2022-09-12T17:59:15;10.85;;;4.78;;
70199;SDS011;57587;55.688;37.600;2022-09-12T18:01:49;7.63;;;4.70;;
70199;SDS011;57587;55.688;37.600;2022-09-12T18:04:35;8.18;;;4.30;;
70199;SDS011;57587;55.688;37.600;2022-09-12T18:07:06;9.13;;;4.60;;
70199;SDS011;57587;55.688;37.600;2022-09-12T18:09:34;8.63;;;4.32;;